Latest Weather Observations for Falls Creek

IDV60801

Issued at 9:32 am EDT Tuesday 24 January 2017 (issued every 30 minutes, with the page automatically refreshed every 10 minutes)

About weather observations | Map of weather stations | Latest weather observations for VIC | Other Formats
Station Details ID: 083084 Name: FALLS CREEK Lat: -36.87 Lon: 147.28 Height: 1765.0 m
Data from the previous 72 hours. | See also: Recent months at Falls Creek
Date/Time
EDT
Temp
°C
App
Temp
°C
Dew
Point
°C
Rel
Hum
%
Delta-T
°C
Wind Press
QNH
hPa
Press
MSL
hPa
Rain since
9am
mm
Dir  Spd
km/h
Gust
km/h
Spd
kts
Gust
kts
24/09:30am 14.0 10.3 13.8 99 0.1 NW 26 43 14 23 1016.4 1008.0 0.0
24/09:00am 13.7 10.6 13.5 99 0.1 NW 22 39 12 21 1016.1 1007.6 1.4
24/08:30am 13.7 10.6 13.5 99 0.1 NW 22 41 12 22 1015.5 1007.0 1.4
24/08:00am 13.7 9.9 13.5 99 0.1 NW 26 39 14 21 1014.8 1006.3 1.4
24/07:37am 14.0 9.9 13.8 99 0.1 NW 28 48 15 26 1014.5 1006.0 1.4
24/07:30am 14.0 10.6 13.8 99 0.1 NW 24 43 13 23 1014.8 1006.3 1.4
24/07:06am 13.9 9.0 13.7 99 0.1 NNW 32 56 17 30 1014.0 1005.5 1.4
24/07:00am 14.0 9.5 13.8 99 0.1 NNW 30 46 16 25 1014.2 1005.6 1.4
24/06:30am 14.3 9.2 13.8 97 0.3 NNW 33 61 18 33 1013.7 1005.2 1.4
24/06:00am 14.1 9.7 12.8 92 0.8 NW 28 46 15 25 1013.9 1005.4 1.2
24/05:32am 13.9 9.0 12.5 91 0.8 NW 30 48 16 26 1014.0 1005.5 1.2
24/05:30am 14.0 8.7 12.6 91 0.8 NW 32 48 17 26 1013.9 1005.4 1.2
24/05:00am 13.6 7.9 11.8 89 1.1 NW 33 57 18 31 1013.9 1005.4 1.2
24/04:34am 13.4 6.8 11.5 88 1.1 NNW 37 56 20 30 1013.7 1005.2 1.2
24/04:30am 13.7 6.7 11.2 85 1.5 NNW 39 56 21 30 1013.7 1005.2 1.2
24/04:00am 14.1 8.1 10.9 81 1.9 NW 33 54 18 29 1013.9 1005.4 1.2
24/03:30am 14.5 8.8 11.3 81 1.9 NW 32 54 17 29 1014.4 1005.9 1.0
24/03:04am 16.3 11.5 11.7 74 2.7 NW 28 50 15 27 1014.4 1005.9 0.0
24/03:00am 17.2 12.2 10.8 66 3.8 NW 28 44 15 24 1014.6 1006.1 0.0
24/02:30am 17.4 13.3 13.7 79 2.3 NW 28 48 15 26 1014.6 1006.1 0.0
24/02:04am 17.1 12.9 15.6 91 1.0 NNW 32 52 17 28 1014.5 1006.0 0.0
24/02:00am 17.0 12.7 15.9 93 0.7 NNW 33 48 18 26 1014.5 1006.0 0.0
24/01:30am 17.4 12.7 16.9 97 0.3 NNW 37 56 20 30 1014.5 1006.0 0.0
24/01:18am 17.5 13.2 17.0 97 0.3 NNW 35 54 19 29 1014.4 1005.9 0.0
24/01:00am 17.7 13.5 17.1 96 0.4 NNW 35 48 19 26 1014.2 1005.6 0.0
24/12:44am 17.8 13.5 17.0 95 0.5 NNW 35 54 19 29 1014.3 1005.8 0.0
24/12:30am 17.7 14.1 17.1 96 0.4 NNW 32 44 17 24 1014.4 1005.9 0.0
24/12:00am 18.2 14.9 16.0 87 1.4 NNW 28 44 15 24 1015.1 1006.6 0.0
 
Date/Time
EDT
Temp
°C
App
Temp
°C
Dew
Point
°C
Rel
Hum
%
Delta-T
°C
Wind Press
QNH
hPa
Press
MSL
hPa
Rain since
9am
mm
Dir  Spd
km/h
Gust
km/h
Spd
kts
Gust
kts
23/11:30pm 18.4 13.8 14.5 78 2.4 NNW 32 43 17 23 1014.8 1006.3 0.0
23/11:00pm 18.8 12.9 12.5 67 3.8 NNW 35 48 19 26 1015.2 1006.7 0.0
23/10:30pm 20.5 14.6 10.3 52 6.0 NNW 32 46 17 25 1015.1 1006.6 0.0
23/10:00pm 20.8 14.9 10.3 51 6.2 NNW 32 44 17 24 1015.4 1006.9 0.0
23/09:30pm 20.5 15.4 10.6 53 5.9 NNW 28 35 15 19 1015.4 1006.9 0.0
23/09:00pm 20.6 15.2 11.0 54 5.7 NNW 30 37 16 20 1015.5 1007.0 0.0
23/08:30pm 20.4 15.4 11.1 55 5.6 NNW 28 39 15 21 1015.4 1006.9 0.0
23/08:00pm 20.5 15.6 11.4 56 5.5 NNW 28 35 15 19 1015.5 1007.0 0.0
23/07:30pm 20.3 15.9 11.8 58 5.1 NNW 26 35 14 19 1015.5 1007.0 0.0
23/07:00pm 20.9 17.2 12.6 59 5.1 NNW 24 35 13 19 1015.2 1006.7 0.0
23/06:30pm 21.3 17.5 12.4 57 5.4 NNW 24 35 13 19 1015.2 1006.7 0.0
23/06:00pm 21.3 16.8 12.7 58 5.3 NNW 28 39 15 21 1015.2 1006.7 0.0
23/05:30pm 20.6 16.4 13.6 64 4.4 NNW 28 41 15 22 1015.5 1007.0 0.0
23/05:00pm 20.5 16.2 13.2 63 4.5 NNW 28 44 15 24 1015.6 1007.1 0.0
23/04:30pm 20.6 16.1 13.8 65 4.2 NNW 30 44 16 24 1015.9 1007.5 0.0
23/04:01pm 20.8 15.2 13.3 62 4.7 N 35 54 19 29 1016.1 1007.6 0.0
23/04:00pm 21.2 15.7 13.6 62 4.7 N 35 50 19 27 1016.1 1007.6 0.0
23/03:50pm 21.1 15.6 13.5 62 4.7 N 35 54 19 29 1016.3 1007.9 0.0
23/03:30pm 20.9 15.9 14.1 65 4.3 N 33 48 18 26 1016.7 1008.2 0.0
23/03:00pm 20.4 15.4 15.0 71 3.4 N 35 57 19 31 1017.0 1008.6 0.0
23/02:30pm 19.3 14.0 14.3 73 3.1 NNW 35 57 19 31 1017.0 1008.6 0.0
23/02:00pm 18.8 14.0 14.5 76 2.7 N 33 54 18 29 1017.5 1009.1 0.0
23/01:36pm 19.1 14.1 13.9 72 3.2 NNW 33 52 18 28 1017.6 1009.2 0.0
23/01:30pm 18.9 13.9 13.3 70 3.4 NNW 32 46 17 25 1017.6 1009.2 0.0
23/01:16pm 19.1 14.5 13.5 70 3.5 NNW 30 48 16 26 1017.7 1009.3 0.0
23/01:00pm 18.7 14.5 13.6 72 3.2 NNW 28 43 15 23 1018.1 1009.7 0.0
23/12:30pm 18.2 13.7 13.7 75 2.8 N 30 44 16 24 1018.2 1009.8 0.0
23/12:00pm 17.5 14.0 13.4 77 2.5 NNW 24 37 13 20 1018.6 1010.2 0.0
23/11:30am 16.7 13.0 12.8 78 2.4 NNW 24 39 13 21 1018.8 1010.4 0.0
23/11:00am 16.8 11.6 11.7 72 3.0 NNW 30 41 16 22 1018.6 1010.2 0.0
23/10:30am 16.1 11.1 10.8 71 3.1 NNW 28 39 15 21 1019.0 1010.7 0.0
23/10:00am 16.0 10.8 10.3 69 3.3 NNW 28 46 15 25 1019.2 1010.8 0.0
23/09:30am 15.6 10.3 9.9 69 3.3 NNW 28 37 15 20 1019.3 1010.9 0.0
23/09:00am 15.5 10.1 9.4 67 3.4 NNW 28 41 15 22 1019.3 1010.9 0.0
23/08:30am 15.3 9.4 9.0 66 3.5 NNW 30 41 16 22 1019.2 1010.8 0.0
23/08:11am 15.5 9.5 8.7 64 3.8 NNW 30 48 16 26 1019.4 1011.0 0.0
23/08:00am 15.4 9.4 8.6 64 3.8 NNW 30 41 16 22 1019.3 1010.9 0.0
23/07:30am 15.3 8.7 7.6 60 4.2 NNW 32 44 17 24 1019.0 1010.7 0.0
23/07:00am 15.2 9.2 7.0 58 4.4 NNW 28 39 15 21 1018.9 1010.6 0.0
23/06:30am 15.3 8.8 6.6 56 4.7 NNW 30 39 16 21 1018.6 1010.2 0.0
23/06:00am 15.3 9.1 6.3 55 4.8 NNW 28 37 15 20 1018.6 1010.2 0.0
23/05:30am 15.2 9.1 6.5 56 4.7 NNW 28 37 15 20 1018.3 1009.9 0.0
23/05:00am 15.6 8.5 6.3 54 5.0 NNW 33 44 18 24 1018.0 1009.6 0.0
23/04:30am 15.1 8.3 6.7 57 4.5 NNW 32 41 17 22 1018.2 1009.8 0.0
23/04:00am 15.0 8.5 6.6 57 4.5 NNW 30 39 16 21 1018.3 1009.9 0.0
23/03:30am 15.3 9.5 6.3 55 4.8 NNW 26 37 14 20 1018.4 1010.1 0.0
23/03:00am 15.4 8.9 6.4 55 4.8 NNW 30 37 16 20 1018.4 1010.1 0.0
23/02:30am 15.4 8.9 6.4 55 4.8 NNW 30 37 16 20 1018.6 1010.2 0.0
23/02:00am 15.2 9.4 6.2 55 4.8 NNW 26 33 14 18 1019.0 1010.7 0.0
23/01:30am 15.1 9.6 6.1 55 4.8 NNW 24 32 13 17 1019.6 1011.3 0.0
23/01:00am 15.2 9.7 6.0 54 4.9 NNW 24 30 13 16 1019.9 1011.5 0.0
23/12:30am 15.6 10.5 5.8 52 5.2 NNW 22 30 12 16 1020.1 1011.8 0.0
23/12:00am 15.1 9.6 6.1 55 4.8 NNW 24 32 13 17 1020.5 1012.2 0.0
 
Date/Time
EDT
Temp
°C
App
Temp
°C
Dew
Point
°C
Rel
Hum
%
Delta-T
°C
Wind Press
QNH
hPa
Press
MSL
hPa
Rain since
9am
mm
Dir  Spd
km/h
Gust
km/h
Spd
kts
Gust
kts
22/11:30pm 15.2 9.8 6.2 55 4.8 NNW 24 33 13 18 1020.6 1012.3 0.0
22/11:00pm 14.9 9.9 6.5 57 4.5 NNW 22 28 12 15 1020.7 1012.4 0.0
22/10:30pm 14.5 10.5 6.6 59 4.2 NNW 17 19 9 10 1021.1 1012.8 0.0
22/10:00pm 14.8 10.2 6.6 58 4.4 NNW 20 24 11 13 1021.3 1013.0 0.0
22/09:30pm 14.6 10.5 6.4 58 4.4 NNW 17 22 9 12 1021.4 1013.1 0.0
22/09:00pm 14.3 11.2 7.1 62 3.9 N 13 17 7 9 1021.2 1012.9 0.0
22/08:30pm 14.3 11.5 8.5 68 3.2 NNW 13 15 7 8 1021.4 1013.1 0.0
22/08:00pm 14.7 11.4 8.0 64 3.7 NNW 15 17 8 9 1021.2 1012.9 0.0
22/07:30pm 15.3 12.4 8.3 63 3.9 NNW 13 19 7 10 1021.1 1012.8 0.0
22/07:00pm 15.7 12.6 8.9 64 3.8 NNW 15 20 8 11 1020.9 1012.6 0.0
22/06:30pm 16.9 14.8 9.8 63 4.1 NNW 11 20 6 11 1020.8 1012.5 0.0
22/06:00pm 18.4 16.2 10.8 61 4.5 NW 13 19 7 10 1020.7 1012.4 0.0
22/05:30pm 18.8 16.8 11.6 63 4.3 NW 13 19 7 10 1020.7 1012.4 0.0
22/05:00pm 18.9 16.8 11.2 61 4.6 NNW 13 20 7 11 1020.9 1012.6 0.0
22/04:30pm 19.2 17.9 11.3 60 4.7 NNW 9 17 5 9 1021.2 1012.9 0.0
22/04:00pm 19.3 17.9 12.1 63 4.3 NNW 11 19 6 10 1021.3 1013.0 0.0
22/03:30pm 19.2 17.1 11.3 60 4.7 NNW 13 20 7 11 1021.4 1013.1 0.0
22/03:00pm 18.6 16.4 10.7 60 4.6 N 13 20 7 11 1021.4 1013.1 0.0
22/02:30pm 18.7 16.9 12.0 65 4.0 N 13 20 7 11 1021.4 1013.1 0.0
22/02:00pm 18.2 16.1 11.0 63 4.2 N 13 19 7 10 1021.4 1013.1 0.0
22/01:30pm 17.9 15.8 11.2 65 4.0 N 13 20 7 11 1021.4 1013.1 0.0
22/01:00pm 18.0 16.0 11.6 66 3.8 NNE 13 19 7 10 1021.7 1013.4 0.0
22/12:30pm 16.7 14.0 8.9 60 4.4 N 13 17 7 9 1021.7 1013.4 0.0
22/12:00pm 16.6 14.5 9.8 64 3.9 N 11 17 6 9 1021.8 1013.5 0.0
22/11:30am 15.9 13.4 9.6 66 3.6 NNE 13 17 7 9 1021.8 1013.5 0.0
22/11:00am 15.0 12.2 8.7 66 3.5 N 13 17 7 9 1021.5 1013.3 0.0
22/10:30am 15.0 13.0 8.5 65 3.6 N 9 19 5 10 1021.7 1013.4 0.0
22/10:00am 13.6 11.7 6.7 63 3.7 WSW 6 11 3 6 1021.8 1013.5 0.0
22/09:30am 13.3 11.1 6.4 63 3.6 NW 7 15 4 8 1021.8 1013.5 0.0
22/09:00am 12.9 9.9 7.8 71 2.8 NNW 13 20 7 11 1021.8 1013.5 0.0
22/08:30am 12.3 9.6 7.2 71 2.7 NNW 11 22 6 12 1021.5 1013.3 0.0
22/08:00am 11.6 9.1 6.5 71 2.7 NW 9 17 5 9 1021.3 1013.0 0.0
22/07:30am 11.1 7.8 6.5 73 2.4 NNW 13 19 7 10 1020.9 1012.6 0.0
22/07:00am 10.6 6.5 6.0 73 2.4 NNW 17 20 9 11 1020.7 1012.4 0.0
22/06:30am 10.3 6.1 5.7 73 2.3 NNW 17 22 9 12 1020.6 1012.3 0.0
22/06:00am 10.6 6.0 5.4 70 2.6 NNW 19 26 10 14 1020.3 1012.0 0.0
22/05:30am 10.7 5.8 5.0 68 2.9 NNW 20 26 11 14 1020.1 1011.8 0.0
22/05:00am 10.8 6.0 4.9 67 3.0 NNW 19 24 10 13 1019.8 1011.4 0.0
22/04:30am 10.9 6.0 5.0 67 3.0 NNW 20 24 11 13 1019.5 1011.2 0.0
22/04:00am 10.8 5.9 4.9 67 3.0 NW 20 26 11 14 1019.5 1011.2 0.0
22/03:30am 10.7 6.2 4.4 65 3.1 NW 17 22 9 12 1019.5 1011.2 0.0
22/03:00am 11.1 7.5 2.9 57 4.0 NW 11 15 6 8 1019.5 1011.2 0.0
22/02:30am 11.3 7.5 -0.8 43 5.4 NW 9 13 5 7 1019.5 1011.2 0.0
22/02:00am 12.5 8.6 -4.6 30 7.1 ENE 7 11 4 6 1019.5 1011.2 0.0
22/01:30am 8.5 5.8 3.8 72 2.3 SE 7 11 4 6 1019.6 1011.3 0.0
22/01:00am 8.5 5.6 4.5 76 2.0 SE 9 13 5 7 1019.9 1011.5 0.0
22/12:30am 8.3 5.3 5.9 85 1.2 SE 11 15 6 8 1020.1 1011.8 0.0
22/12:00am 8.6 4.8 5.7 82 1.5 SSE 15 20 8 11 1020.1 1011.8 0.0
 
Date/Time
EDT
Temp
°C
App
Temp
°C
Dew
Point
°C
Rel
Hum
%
Delta-T
°C
Wind Press
QNH
hPa
Press
MSL
hPa
Rain since
9am
mm
Dir  Spd
km/h
Gust
km/h
Spd
kts
Gust
kts
21/11:30pm 8.9 4.4 6.0 82 1.5 SSE 19 22 10 12 1020.1 1011.8 0.0
21/11:00pm 8.4 4.0 6.7 89 0.9 SSE 19 22 10 12 1020.0 1011.7 0.0
21/10:30pm 7.7 4.4 6.6 93 0.6 SSE 13 15 7 8 1020.2 1011.9 0.0
21/10:00pm 7.8 4.6 6.7 93 0.6 ESE 13 17 7 9 1020.3 1012.0 0.0
21/09:30pm 7.9 4.6 6.5 91 0.7 SSE 13 17 7 9 1020.2 1011.9 0.0
21/09:00pm 8.6 5.0 6.7 88 1.0 SSE 15 20 8 11 1020.1 1011.8 0.0
21/08:30pm 9.3 5.3 6.7 84 1.3 SSE 17 20 9 11 1020.0 1011.7 0.0
21/08:00pm 10.9 7.4 7.4 79 1.9 SSE 15 19 8 10 1019.8 1011.4 0.0
21/07:30pm 12.0 8.6 7.5 74 2.4 SSE 15 17 8 9 1019.5 1011.2 0.0
21/07:00pm 13.5 10.6 8.1 70 2.9 SSE 13 17 7 9 1019.3 1010.9 0.0
21/06:30pm 14.1 11.3 8.5 69 3.1 SE 13 17 7 9 1019.0 1010.7 0.0
21/06:00pm 14.2 11.4 8.4 68 3.2 SE 13 17 7 9 1019.0 1010.7 0.0
21/05:30pm 14.7 12.4 8.9 68 3.2 SE 11 19 6 10 1018.9 1010.6 0.0
21/05:00pm 15.8 14.3 9.0 64 3.8 SSE 7 13 4 7 1018.8 1010.4 0.0
21/04:30pm 16.4 14.1 8.9 61 4.2 ESE 11 15 6 8 1018.8 1010.4 0.0
21/04:00pm 16.5 14.1 8.5 59 4.5 SE 11 19 6 10 1018.6 1010.2 0.0
21/03:30pm 16.9 15.6 9.8 63 4.1 SE 7 15 4 8 1018.4 1010.1 0.0
21/03:00pm 15.3 13.0 7.3 59 4.3 ENE 9 15 5 8 1018.4 1010.1 0.0
21/02:30pm 16.1 14.8 9.8 66 3.6 NNE 7 15 4 8 1018.3 1009.9 0.0
21/02:00pm 16.6 14.6 7.3 54 5.1 E 7 15 4 8 1018.1 1009.7 0.0
21/01:30pm 16.1 14.6 8.3 60 4.3 NE 6 13 3 7 1018.0 1009.6 0.0
21/01:00pm 15.4 11.8 0.8 37 7.0 S 9 17 5 9 1017.7 1009.3 0.0
21/12:30pm 15.0 10.9 -0.3 35 7.1 SSE 11 20 6 11 1017.6 1009.2 0.0
21/12:00pm 14.5 11.6 2.7 45 5.8 SSE 7 17 4 9 1017.3 1008.8 0.0
21/11:30am 14.4 10.3 2.0 43 6.0 SSW 13 24 7 13 1017.0 1008.6 0.0
21/11:00am 13.1 6.9 -2.8 33 6.9 SSW 20 26 11 14 1016.5 1008.1 0.0
21/10:30am 12.3 5.3 -3.5 33 6.7 S 24 33 13 18 1016.3 1007.9 0.0
21/10:00am 12.0 6.0 -3.0 35 6.4 S 19 26 10 14 1016.1 1007.6 0.0

Other Formats:

Comma delimited format used in spreadsheet applications
http://www.bom.gov.au/fwo/IDV60801/IDV60801.94903.axf

JavaScript Object Notation format (JSON) in row-major order
http://www.bom.gov.au/fwo/IDV60801/IDV60801.94903.json